Time;durP1;ratioP1;P1;durP2;ratioP2;P2;SDS_P1;SDS_P2;PMS_P1;PMS_P2;Temp;Humidity;BMP_temperature;BMP_pressure;BME280_temperature;BME280_humidity;BME280_pressure;Samples;Min_cycle;Max_cycle;Signal;HPM_P1;HPM_P2
2022/06/15 00:01:26;;;;;;;6.25;1.50;;;16.80;67.40;;;;;;4978593;28;20037;-77
2022/06/15 00:03:53;;;;;;;3.88;1.10;;;16.80;67.80;;;;;;4980770;28;20068;-78
2022/06/15 00:06:25;;;;;;;5.55;1.90;;;16.70;68.10;;;;;;5013932;28;20022;-78
2022/06/15 00:08:53;;;;;;;6.30;1.42;;;16.70;68.60;;;;;;5014043;28;20378;-77
2022/06/15 00:11:26;;;;;;;5.22;1.30;;;16.60;68.70;;;;;;5013908;28;20446;-78
2022/06/15 00:13:54;;;;;;;5.07;1.20;;;16.60;68.70;;;;;;5014093;28;20033;-77
2022/06/15 00:16:20;;;;;;;6.68;1.38;;;16.60;69.00;;;;;;5014012;28;20032;-78
2022/06/15 00:18:46;;;;;;;5.20;1.30;;;16.60;68.80;;;;;;4997800;28;20044;-78
2022/06/15 00:21:14;;;;;;;3.92;1.15;;;16.50;69.00;;;;;;5015714;28;20509;-78
2022/06/15 00:23:40;;;;;;;3.28;0.93;;;16.50;69.20;;;;;;5015620;28;20109;-78
2022/06/15 00:26:06;;;;;;;4.88;1.30;;;16.50;69.50;;;;;;4997535;28;20430;-77
2022/06/15 00:28:33;;;;;;;5.47;1.20;;;16.40;69.70;;;;;;5013728;28;20018;-77
2022/06/15 00:30:59;;;;;;;4.35;1.50;;;16.40;69.90;;;;;;5013611;28;20065;-77
2022/06/15 00:33:26;;;;;;;3.55;1.13;;;16.40;70.00;;;;;;5013837;28;20156;-77
2022/06/15 00:35:56;;;;;;;2.42;1.10;;;16.30;70.00;;;;;;5013588;28;20048;-77
2022/06/15 00:38:25;;;;;;;5.43;1.10;;;16.30;70.00;;;;;;5013626;28;20099;-77
2022/06/15 00:40:51;;;;;;;3.17;1.38;;;16.30;70.10;;;;;;5013510;28;20036;-77
2022/06/15 00:43:37;;;;;;;6.90;1.63;;;16.30;70.30;;;;;;4997119;28;20034;-77
2022/06/15 00:46:21;;;;;;;3.63;1.17;;;16.20;70.30;;;;;;5013042;28;20034;-76
2022/06/15 00:48:49;;;;;;;;;;;16.20;70.30;;;;;;5013734;28;20497;-77
2022/06/15 00:51:15;;;;;;;10.05;1.55;;;16.20;70.40;;;;;;5013312;28;19912;-77
2022/06/15 00:53:41;;;;;;;4.43;1.50;;;16.10;70.70;;;;;;5013633;28;20110;-77
2022/06/15 00:56:09;;;;;;;4.68;1.20;;;16.10;70.20;;;;;;5013184;28;20029;-77
2022/06/15 00:58:37;;;;;;;3.60;0.98;;;16.00;70.20;;;;;;4981085;28;20046;-77
2022/06/15 01:01:04;;;;;;;5.60;1.13;;;16.00;70.30;;;;;;5014498;28;20034;-77
2022/06/15 01:03:30;;;;;;;3.55;1.30;;;16.00;71.20;;;;;;5013152;28;20022;-78
2022/06/15 01:06:05;;;;;;;5.55;1.50;;;16.00;71.30;;;;;;5013410;28;20125;-78
2022/06/15 01:08:49;;;;;;;4.78;1.63;;;15.90;71.00;;;;;;5013312;28;20387;-78
2022/06/15 01:11:27;;;;;;;7.07;1.38;;;15.90;71.00;;;;;;5029647;28;20496;-78
2022/06/15 01:14:01;;;;;;;5.97;1.30;;;15.90;71.40;;;;;;5012583;28;20390;-78
2022/06/15 01:16:27;;;;;;;6.97;1.50;;;15.80;71.80;;;;;;5014402;28;20025;-78
2022/06/15 01:18:52;;;;;;;6.57;1.80;;;15.80;71.90;;;;;;5013079;28;20141;-78
2022/06/15 01:21:50;;;;;;;5.22;1.20;;;15.70;72.10;;;;;;5012835;28;20062;-78
2022/06/15 01:24:48;;;;;;;5.47;1.20;;;15.80;72.70;;;;;;5012991;28;20018;-79
2022/06/15 01:27:23;;;;;;;6.38;1.48;;;15.70;72.70;;;;;;5012882;28;20109;-78
2022/06/15 01:30:22;;;;;;;6.75;1.38;;;15.60;72.70;;;;;;5012965;28;20080;-79
2022/06/15 01:33:26;;;;;;;4.13;1.10;;;15.60;73.20;;;;;;5014318;28;20030;-78
2022/06/15 01:36:09;;;;;;;5.35;1.30;;;15.60;73.50;;;;;;4999754;28;20493;-77
2022/06/15 01:39:00;;;;;;;3.97;1.30;;;15.50;73.70;;;;;;5012739;28;20022;-78
2022/06/15 01:41:45;;;;;;;5.57;1.65;;;15.50;73.70;;;;;;5029036;28;20030;-78
2022/06/15 01:45:00;;;;;;;4.00;1.30;;;15.50;74.00;;;;;;5012668;28;20367;-78
2022/06/15 01:47:29;;;;;;;7.72;1.70;;;15.40;74.30;;;;;;5006319;28;20038;-77
2022/06/15 01:50:11;;;;;;;4.65;1.50;;;15.40;74.20;;;;;;5013908;28;20548;-78
2022/06/15 01:52:44;;;;;;;5.82;1.33;;;15.30;74.40;;;;;;5013779;28;20033;-78
2022/06/15 01:55:18;;;;;;;6.07;1.50;;;15.30;74.60;;;;;;5012507;28;20021;-78
2022/06/15 01:57:47;;;;;;;9.20;1.73;;;15.30;75.10;;;;;;5012485;28;20037;-78
2022/06/15 02:00:17;;;;;;;4.72;1.42;;;15.20;75.10;;;;;;5012137;28;20045;-78
2022/06/15 02:03:08;;;;;;;6.82;1.73;;;15.20;75.20;;;;;;4996331;28;20097;-78
2022/06/15 02:05:42;;;;;;;6.70;1.70;;;15.20;75.50;;;;;;5012433;28;20033;-78
2022/06/15 02:08:18;;;;;;;4.18;1.73;;;15.20;75.50;;;;;;5013602;28;20057;-78
2022/06/15 02:11:28;;;;;;;5.88;1.33;;;15.20;75.50;;;;;;5012598;28;20022;-78
2022/06/15 02:14:26;;;;;;;9.00;1.85;;;15.10;75.70;;;;;;4953258;29;20170;-78
2022/06/15 02:17:17;;;;;;;4.25;1.50;;;15.10;75.70;;;;;;5012278;28;20029;-78
2022/06/15 02:19:47;;;;;;;4.88;1.65;;;15.10;75.80;;;;;;5012302;28;20113;-78
2022/06/15 02:22:17;;;;;;;6.28;1.70;;;15.10;75.90;;;;;;5012058;28;20041;-78
2022/06/15 02:24:46;;;;;;;6.93;1.63;;;15.10;76.10;;;;;;5012271;28;20088;-78
2022/06/15 02:27:13;;;;;;;5.25;1.85;;;15.00;76.10;;;;;;5031481;28;20030;-78
2022/06/15 02:29:42;;;;;;;5.40;1.73;;;15.00;76.30;;;;;;5017444;28;20022;-78
2022/06/15 02:32:10;;;;;;;5.35;1.73;;;15.00;76.50;;;;;;5015680;28;20492;-78
2022/06/15 02:34:37;;;;;;;5.45;1.95;;;14.90;76.70;;;;;;5016202;28;20021;-78
2022/06/15 02:37:04;;;;;;;7.47;1.60;;;14.90;76.70;;;;;;5016066;28;20034;-78
2022/06/15 02:39:30;;;;;;;6.70;1.70;;;14.90;76.80;;;;;;5016346;28;20126;-78
2022/06/15 02:41:58;;;;;;;7.90;1.63;;;14.90;77.00;;;;;;4999543;28;20129;-78
2022/06/15 02:44:25;;;;;;;5.70;1.60;;;14.80;77.00;;;;;;5015781;28;20030;-78
2022/06/15 02:46:52;;;;;;;7.30;2.00;;;14.90;77.20;;;;;;5016956;28;20482;-78
2022/06/15 02:49:18;;;;;;;5.13;1.75;;;14.80;77.10;;;;;;4983276;28;20036;-78
2022/06/15 02:51:53;;;;;;;7.97;2.33;;;14.80;77.30;;;;;;4999238;28;20026;-78
2022/06/15 02:54:30;;;;;;;6.28;2.03;;;14.80;77.50;;;;;;5031999;28;20470;-78
2022/06/15 02:56:56;;;;;;;6.55;1.50;;;14.80;77.70;;;;;;5015565;28;20030;-78
2022/06/15 02:59:22;;;;;;;6.97;1.80;;;14.80;77.70;;;;;;5015563;28;20107;-78
2022/06/15 03:01:48;;;;;;;5.78;1.75;;;14.70;77.70;;;;;;4999251;28;20425;-78
2022/06/15 03:04:13;;;;;;;6.47;1.73;;;14.70;77.90;;;;;;5015409;28;20030;-78
2022/06/15 03:06:39;;;;;;;5.57;2.00;;;14.70;78.00;;;;;;4999229;28;20133;-78
2022/06/15 03:09:05;;;;;;;10.02;1.83;;;14.70;78.20;;;;;;5015693;28;20492;-78
2022/06/15 03:11:31;;;;;;;4.80;1.52;;;14.60;78.20;;;;;;5015359;28;20026;-79
2022/06/15 03:13:56;;;;;;;5.95;1.55;;;14.70;78.50;;;;;;4999343;28;20038;-78
2022/06/15 03:16:22;;;;;;;5.65;1.48;;;14.70;78.40;;;;;;5015108;28;20022;-78
2022/06/15 03:18:48;;;;;;;5.75;1.90;;;14.70;78.40;;;;;;5031731;28;20022;-78
2022/06/15 03:21:14;;;;;;;7.15;1.80;;;14.60;78.40;;;;;;4998854;28;20026;-78
2022/06/15 03:23:40;;;;;;;6.65;1.63;;;14.60;78.60;;;;;;5031489;28;20124;-78
2022/06/15 03:26:06;;;;;;;6.45;1.75;;;14.60;78.80;;;;;;4999221;28;20057;-78
2022/06/15 03:28:34;;;;;;;5.22;1.40;;;14.60;78.80;;;;;;4982366;28;20026;-78
2022/06/15 03:30:59;;;;;;;3.50;1.65;;;14.60;78.90;;;;;;4998965;28;20033;-78
2022/06/15 03:33:25;;;;;;;6.93;2.05;;;14.60;78.90;;;;;;5015211;28;20102;-78
2022/06/15 03:35:51;;;;;;;6.25;2.08;;;14.50;78.90;;;;;;5014863;28;20033;-78
2022/06/15 03:38:16;;;;;;;4.55;1.70;;;14.50;79.00;;;;;;5014041;28;20030;-78
2022/06/15 03:40:45;;;;;;;5.13;1.63;;;14.60;79.00;;;;;;5014724;28;20450;-78
2022/06/15 03:43:11;;;;;;;7.22;1.60;;;14.50;79.00;;;;;;5014725;28;20034;-82
2022/06/15 03:45:37;;;;;;;6.50;2.35;;;14.60;79.00;;;;;;5014586;28;20038;-82
2022/06/15 03:48:03;;;;;;;6.45;1.52;;;14.50;79.10;;;;;;5014593;28;20080;-80
2022/06/15 03:50:34;;;;;;;7.22;1.88;;;14.50;79.20;;;;;;4998150;28;20026;-80
2022/06/15 03:53:01;;;;;;;7.50;2.03;;;14.60;79.50;;;;;;5015913;28;20054;-80
2022/06/15 03:55:31;;;;;;;6.15;1.88;;;14.60;79.40;;;;;;5014676;28;20030;-81
2022/06/15 03:57:57;;;;;;;4.78;1.60;;;14.50;79.50;;;;;;5014522;28;20105;-81
2022/06/15 04:00:25;;;;;;;9.25;1.95;;;14.60;79.60;;;;;;4997986;28;20140;-80
2022/06/15 04:02:52;;;;;;;8.70;1.48;;;14.60;79.80;;;;;;5015024;28;20022;-81
2022/06/15 04:05:21;;;;;;;5.95;2.08;;;14.60;79.80;;;;;;5030806;28;20029;-80
2022/06/15 04:10:32;;;;;;;5.18;2.05;;;14.50;79.90;;;;;;4996124;28;20045;-81
2022/06/15 04:12:58;;;;;;;6.20;1.73;;;14.60;80.00;;;;;;4995916;28;20098;-81
2022/06/15 04:15:23;;;;;;;6.63;1.92;;;14.60;80.20;;;;;;4994430;28;20474;-81
2022/06/15 04:17:49;;;;;;;6.88;1.73;;;14.60;80.30;;;;;;4978241;28;20060;-80
2022/06/15 04:20:33;;;;;;;11.32;1.75;;;14.60;80.40;;;;;;4994588;28;20505;-81
2022/06/15 04:23:10;;;;;;;7.18;1.65;;;14.60;80.50;;;;;;4995598;28;20030;-80
2022/06/15 04:25:43;;;;;;;6.10;1.90;;;14.60;80.60;;;;;;4995502;28;20031;-81
2022/06/15 04:28:11;;;;;;;5.65;1.85;;;14.60;80.70;;;;;;4994109;28;20074;-81
2022/06/15 04:30:37;;;;;;;7.40;1.48;;;14.60;80.80;;;;;;4994167;28;20478;-82
2022/06/15 04:33:02;;;;;;;7.20;1.70;;;14.70;80.90;;;;;;4994117;28;20026;-82
2022/06/15 04:35:28;;;;;;;4.22;1.50;;;14.70;80.90;;;;;;4994006;28;20022;-82
2022/06/15 04:37:54;;;;;;;9.23;1.65;;;14.70;81.60;;;;;;4994018;28;20041;-82
2022/06/15 04:40:20;;;;;;;7.13;2.15;;;14.80;81.10;;;;;;4993987;28;20121;-81
2022/06/15 04:42:45;;;;;;;4.55;1.65;;;14.80;81.10;;;;;;4993958;28;20441;-81
2022/06/15 04:45:13;;;;;;;7.68;2.00;;;14.80;81.20;;;;;;4993838;28;20029;-81
2022/06/15 04:47:39;;;;;;;8.10;1.63;;;14.80;81.10;;;;;;5010137;28;20479;-81
2022/06/15 04:50:07;;;;;;;6.45;1.60;;;14.80;81.10;;;;;;4992686;28;20125;-81
2022/06/15 04:52:33;;;;;;;7.60;1.67;;;14.80;81.10;;;;;;4995780;28;20030;-81
2022/06/15 04:54:59;;;;;;;4.85;1.58;;;14.80;81.10;;;;;;5007696;28;20088;-81
2022/06/15 04:57:24;;;;;;;3.15;1.17;;;14.90;81.10;;;;;;5010169;28;20470;-81
2022/06/15 04:59:50;;;;;;;8.15;1.30;;;14.90;81.10;;;;;;4992992;28;20141;-81
2022/06/15 05:02:16;;;;;;;9.30;1.90;;;14.90;81.30;;;;;;4985470;28;20375;-82
2022/06/15 05:04:42;;;;;;;7.25;1.50;;;15.00;81.20;;;;;;4987458;28;20034;-82
2022/06/15 05:07:08;;;;;;;9.98;1.95;;;15.00;81.20;;;;;;4996668;28;20034;-81
2022/06/15 05:09:34;;;;;;;6.13;2.03;;;15.00;81.20;;;;;;5013228;28;20026;-81
2022/06/15 05:11:59;;;;;;;9.73;1.70;;;15.10;81.20;;;;;;5012809;28;20033;-81
2022/06/15 05:14:25;;;;;;;3.63;1.52;;;15.10;81.30;;;;;;5012689;28;20034;-81
2022/06/15 05:16:51;;;;;;;4.68;1.30;;;15.10;81.30;;;;;;5012532;28;20036;-81
2022/06/15 05:19:17;;;;;;;8.38;2.03;;;15.20;81.30;;;;;;5013992;28;20417;-81
2022/06/15 05:21:44;;;;;;;4.28;1.25;;;15.20;81.30;;;;;;5012859;28;20034;-83
2022/06/15 05:24:11;;;;;;;6.03;2.13;;;15.20;81.40;;;;;;5012854;28;20121;-82
2022/06/15 05:26:37;;;;;;;10.05;2.25;;;15.30;81.50;;;;;;5012943;28;20034;-82
2022/06/15 05:29:03;;;;;;;4.57;1.50;;;15.30;82.00;;;;;;5013190;28;20057;-82
2022/06/15 05:31:29;;;;;;;6.93;1.48;;;15.30;81.30;;;;;;4980351;28;20030;-81
2022/06/15 05:33:56;;;;;;;9.55;1.85;;;15.30;81.20;;;;;;4980117;28;20424;-82
2022/06/15 05:36:25;;;;;;;9.32;1.42;;;15.40;81.30;;;;;;5012546;28;20056;-83
2022/06/15 05:38:51;;;;;;;6.00;1.30;;;15.40;81.30;;;;;;5012536;28;20026;-83
2022/06/15 05:41:17;;;;;;;6.70;1.67;;;15.50;81.30;;;;;;5012711;28;20053;-83
2022/06/15 05:43:44;;;;;;;4.03;1.35;;;15.50;81.30;;;;;;5013804;28;20057;-83
2022/06/15 05:46:30;;;;;;;7.47;1.52;;;15.60;81.20;;;;;;5012767;28;20033;-83
2022/06/15 05:48:57;;;;;;;6.85;1.40;;;15.60;81.20;;;;;;5012428;28;20057;-79
2022/06/15 05:51:23;;;;;;;6.20;1.40;;;15.60;81.10;;;;;;5005249;28;20467;-79
2022/06/15 05:53:49;;;;;;;9.35;1.42;;;15.70;81.10;;;;;;4995277;28;20050;-79
2022/06/15 05:56:15;;;;;;;6.50;1.40;;;15.70;81.00;;;;;;4979774;28;20388;-84
2022/06/15 05:58:41;;;;;;;11.88;1.38;;;15.80;81.00;;;;;;4994503;28;20053;-84
2022/06/15 06:01:17;;;;;;;6.05;1.45;;;15.80;80.90;;;;;;5008867;28;20034;-82
2022/06/15 06:03:43;;;;;;;6.75;1.23;;;15.90;80.90;;;;;;4994356;28;20483;-83
2022/06/15 06:06:10;;;;;;;8.25;1.70;;;16.00;80.80;;;;;;4979945;28;20037;-83
2022/06/15 06:08:35;;;;;;;6.30;1.35;;;15.90;80.70;;;;;;4994466;28;20180;-83
2022/06/15 06:11:01;;;;;;;8.02;1.40;;;16.00;80.60;;;;;;4998079;28;20483;-84
2022/06/15 06:13:27;;;;;;;4.88;1.42;;;16.00;80.60;;;;;;4987377;28;20080;-84
2022/06/15 06:15:55;;;;;;;6.07;1.30;;;16.00;80.60;;;;;;4992635;28;20022;-72
2022/06/15 06:18:21;;;;;;;6.70;1.25;;;16.10;80.60;;;;;;5008671;28;20125;-81
2022/06/15 06:20:47;;;;;;;4.88;1.65;;;16.10;80.50;;;;;;5008661;28;20116;-75
2022/06/15 06:23:14;;;;;;;5.63;1.17;;;16.20;80.40;;;;;;5009095;28;20058;-77
2022/06/15 06:25:41;;;;;;;5.68;1.40;;;16.20;80.90;;;;;;4992611;28;20030;-78
2022/06/15 06:28:24;;;;;;;7.78;1.13;;;16.20;80.10;;;;;;5008325;28;20034;-78
2022/06/15 06:30:50;;;;;;;4.40;0.85;;;16.30;79.90;;;;;;4993897;28;20034;-77
2022/06/15 06:33:15;;;;;;;3.45;1.23;;;16.30;80.40;;;;;;5008948;28;20050;-76
2022/06/15 06:35:41;;;;;;;6.90;1.10;;;16.40;79.60;;;;;;5008576;28;20038;-77
2022/06/15 06:38:07;;;;;;;4.25;0.90;;;16.40;79.50;;;;;;4992757;28;20039;-76
2022/06/15 06:40:32;;;;;;;4.20;0.93;;;16.50;79.50;;;;;;4990427;28;20125;-77
2022/06/15 06:42:58;;;;;;;4.50;1.13;;;16.50;79.30;;;;;;4994661;28;20536;-77
2022/06/15 06:45:24;;;;;;;8.02;1.35;;;16.50;79.10;;;;;;4994093;28;20113;-77
2022/06/15 06:47:49;;;;;;;6.22;1.10;;;16.60;79.50;;;;;;4992579;28;20037;-76
2022/06/15 06:50:15;;;;;;;3.60;0.80;;;16.60;78.70;;;;;;4992692;28;20039;-76
2022/06/15 06:52:42;;;;;;;5.43;1.02;;;16.70;78.50;;;;;;4992331;28;20073;-77
2022/06/15 06:55:08;;;;;;;5.90;1.10;;;16.70;78.40;;;;;;4992436;28;20046;-76
2022/06/15 06:57:34;;;;;;;4.60;0.73;;;16.80;78.20;;;;;;4992228;28;20041;-77
2022/06/15 07:00:00;;;;;;;4.78;0.95;;;16.80;78.10;;;;;;4975742;28;20149;-77
2022/06/15 07:02:25;;;;;;;3.70;1.10;;;16.90;78.00;;;;;;4993435;28;20039;-77
2022/06/15 07:04:51;;;;;;;8.60;1.50;;;17.00;77.90;;;;;;4993466;28;20031;-76
2022/06/15 07:07:16;;;;;;;5.28;1.10;;;17.00;77.70;;;;;;5000972;28;20073;-77
2022/06/15 07:09:42;;;;;;;4.43;1.08;;;17.00;77.60;;;;;;4987423;28;20034;-76
2022/06/15 07:12:08;;;;;;;5.30;1.00;;;17.10;77.50;;;;;;5013101;28;20489;-76
2022/06/15 07:14:34;;;;;;;3.85;0.70;;;17.20;77.40;;;;;;5014667;28;20034;-76
2022/06/15 07:17:00;;;;;;;4.50;1.05;;;17.20;77.20;;;;;;4998679;28;20026;-76
2022/06/15 07:19:25;;;;;;;6.43;0.95;;;17.30;77.00;;;;;;5015118;28;20049;-76
2022/06/15 07:21:51;;;;;;;4.35;0.80;;;17.40;76.70;;;;;;5016652;28;20363;-76
2022/06/15 07:24:17;;;;;;;4.43;0.93;;;17.40;76.30;;;;;;5016688;28;20038;-78
2022/06/15 07:26:47;;;;;;;4.93;1.10;;;17.40;76.10;;;;;;5008798;28;20039;-77
2022/06/15 07:29:16;;;;;;;3.28;0.95;;;17.50;75.90;;;;;;5002240;28;20492;-77
2022/06/15 07:31:46;;;;;;;3.58;0.80;;;17.60;75.70;;;;;;5014817;28;20036;-77
2022/06/15 07:34:12;;;;;;;9.00;0.80;;;17.60;75.30;;;;;;5012634;28;20414;-78
2022/06/15 07:36:46;;;;;;;6.72;0.80;;;17.70;75.10;;;;;;4986977;28;20406;-78
2022/06/15 07:39:13;;;;;;;5.22;0.75;;;17.80;74.10;;;;;;4996677;28;20030;-78
2022/06/15 07:41:38;;;;;;;4.65;1.23;;;17.90;73.70;;;;;;4990638;28;20364;-77
2022/06/15 07:44:04;;;;;;;4.15;0.70;;;18.00;73.30;;;;;;5012557;28;20038;-77
2022/06/15 07:46:30;;;;;;;5.53;0.90;;;18.00;73.00;;;;;;5016511;28;20033;-77
2022/06/15 07:51:44;;;;;;;4.40;1.10;;;18.20;72.50;;;;;;5015051;28;20040;-78
2022/06/15 07:54:13;;;;;;;4.85;0.80;;;18.30;72.20;;;;;;5015055;28;20014;-77
2022/06/15 07:56:39;;;;;;;4.68;0.70;;;18.30;72.00;;;;;;4998546;28;20037;-78
2022/06/15 07:59:05;;;;;;;5.40;0.70;;;18.40;71.90;;;;;;5013977;28;20096;-77
2022/06/15 08:01:31;;;;;;;6.82;0.88;;;18.50;71.60;;;;;;4992842;28;20022;-77
2022/06/15 08:03:57;;;;;;;4.40;0.80;;;18.60;71.20;;;;;;4996218;28;20368;-77
2022/06/15 08:06:24;;;;;;;7.45;0.80;;;18.70;70.60;;;;;;5010121;28;20065;-77
2022/06/15 08:08:50;;;;;;;3.58;0.52;;;18.70;70.00;;;;;;5011050;28;20410;-77
2022/06/15 08:11:16;;;;;;;3.15;0.60;;;18.70;69.90;;;;;;5013743;28;20033;-77
2022/06/15 08:13:42;;;;;;;5.15;0.98;;;18.80;69.70;;;;;;5013823;28;20041;-77
2022/06/15 08:16:08;;;;;;;4.53;0.90;;;18.90;69.30;;;;;;5008992;28;20022;-74
2022/06/15 08:18:40;;;;;;;3.22;0.82;;;19.00;68.90;;;;;;5002823;28;21451;-75
2022/06/15 08:21:11;;;;;;;4.30;0.73;;;19.00;68.10;;;;;;4996954;28;20033;-76
2022/06/15 08:23:40;;;;;;;4.82;0.93;;;19.10;67.70;;;;;;4995120;28;20030;-75
2022/06/15 08:26:14;;;;;;;6.22;1.05;;;19.20;67.60;;;;;;4997338;28;20022;-75
2022/06/15 08:28:45;;;;;;;4.03;1.00;;;19.30;66.90;;;;;;4995067;28;20371;-76
2022/06/15 08:31:11;;;;;;;3.25;0.70;;;19.30;66.60;;;;;;4995456;28;20026;-75
2022/06/15 08:33:38;;;;;;;5.35;0.90;;;19.40;66.50;;;;;;4995682;28;20049;-76
2022/06/15 08:36:05;;;;;;;3.88;1.00;;;19.50;66.60;;;;;;5003608;28;20493;-76
2022/06/15 08:38:31;;;;;;;5.85;0.80;;;19.50;66.40;;;;;;5008948;28;20053;-77
2022/06/15 08:41:21;;;;;;;4.72;1.10;;;19.60;66.20;;;;;;4986411;28;20068;-76
2022/06/15 08:44:21;;;;;;;5.05;0.85;;;19.60;66.00;;;;;;4993895;28;20031;-76
2022/06/15 08:47:18;;;;;;;6.32;1.05;;;19.70;66.20;;;;;;4991232;28;20030;-75
2022/06/15 08:50:06;;;;;;;4.18;0.80;;;19.80;66.30;;;;;;5003496;28;20018;-75
2022/06/15 08:52:40;;;;;;;5.70;0.90;;;19.90;66.20;;;;;;5013413;28;20022;-76
2022/06/15 08:55:36;;;;;;;5.15;1.15;;;19.90;66.20;;;;;;5013172;28;20032;-76
2022/06/15 08:58:21;;;;;;;3.80;0.90;;;20.00;65.90;;;;;;5013089;28;20056;-77
2022/06/15 09:00:48;;;;;;;7.10;1.10;;;20.10;65.70;;;;;;5014216;28;20033;-77
2022/06/15 09:03:43;;;;;;;5.45;1.00;;;20.20;65.60;;;;;;5012911;28;20381;-76
2022/06/15 09:06:21;;;;;;;5.25;0.70;;;20.30;65.30;;;;;;5013081;28;20030;-77
2022/06/15 09:09:05;;;;;;;41.72;2.45;;;20.30;64.60;;;;;;5012957;28;20385;-76
2022/06/15 09:11:52;;;;;;;6.85;1.08;;;20.40;64.10;;;;;;5012826;28;20565;-77
2022/06/15 09:14:29;;;;;;;3.45;0.75;;;20.50;63.80;;;;;;4994041;28;20026;-77
2022/06/15 09:17:13;;;;;;;4.70;0.80;;;20.60;63.80;;;;;;4996221;28;20702;-77
2022/06/15 09:20:08;;;;;;;5.80;0.90;;;20.60;63.90;;;;;;4996502;28;20022;-76
2022/06/15 09:22:49;;;;;;;4.20;0.80;;;20.70;63.80;;;;;;5010134;28;20018;-75
2022/06/15 09:25:35;;;;;;;7.20;1.55;;;20.80;63.60;;;;;;5012928;28;20033;-77
2022/06/15 09:28:14;;;;;;;3.47;0.73;;;20.90;63.50;;;;;;5013800;28;20032;-74
2022/06/15 09:30:41;;;;;;;10.10;1.02;;;21.00;62.90;;;;;;5013826;28;20050;-74
2022/06/15 09:33:11;;;;;;;4.28;0.70;;;21.10;62.40;;;;;;5012965;28;20072;-74
2022/06/15 09:35:41;;;;;;;3.47;0.85;;;21.10;61.90;;;;;;5013018;28;20029;-77
2022/06/15 09:38:10;;;;;;;5.38;0.82;;;21.20;61.90;;;;;;5013812;28;20034;-73
2022/06/15 09:40:55;;;;;;;5.43;1.13;;;21.30;61.90;;;;;;5008695;28;20054;-78
2022/06/15 09:43:45;;;;;;;3.75;0.77;;;21.40;61.00;;;;;;4992988;28;20026;-77
2022/06/15 09:46:28;;;;;;;3.63;0.80;;;21.40;60.70;;;;;;4994430;28;20038;-77
2022/06/15 09:49:27;;;;;;;5.45;1.00;;;21.60;60.60;;;;;;4992882;28;20023;-77
2022/06/15 09:51:59;;;;;;;3.95;1.00;;;21.70;60.50;;;;;;4994074;28;20161;-78
2022/06/15 09:54:42;;;;;;;4.80;0.70;;;21.70;60.60;;;;;;4992908;28;20490;-75
2022/06/15 09:57:09;;;;;;;4.37;0.90;;;21.80;60.30;;;;;;4993943;28;20030;-74
2022/06/15 09:59:35;;;;;;;2.95;0.75;;;21.90;60.10;;;;;;4997571;28;20047;-75
2022/06/15 10:02:11;;;;;;;5.40;1.08;;;21.90;59.90;;;;;;4992747;28;20431;-76
2022/06/15 10:04:37;;;;;;;3.83;1.00;;;22.00;59.90;;;;;;4994209;28;20042;-75
2022/06/15 10:07:28;;;;;;;5.03;0.90;;;22.10;59.70;;;;;;4993820;28;20039;-75
2022/06/15 10:10:16;;;;;;;3.63;0.80;;;22.20;59.10;;;;;;4992366;28;20022;-75
2022/06/15 10:13:04;;;;;;;3.58;0.70;;;22.30;59.00;;;;;;5001470;28;20462;-75
2022/06/15 10:15:41;;;;;;;11.55;1.48;;;22.30;58.80;;;;;;5010380;28;20564;-75
2022/06/15 10:18:33;;;;;;;4.25;0.90;;;22.40;58.60;;;;;;5013380;28;20065;-74
2022/06/15 10:21:07;;;;;;;2.92;0.80;;;22.50;58.30;;;;;;4982904;28;20037;-75
2022/06/15 10:23:51;;;;;;;3.15;0.70;;;22.60;58.30;;;;;;5011917;28;20042;-75
2022/06/15 10:26:32;;;;;;;3.78;0.80;;;22.60;57.70;;;;;;5012975;28;20025;-75
2022/06/15 10:29:05;;;;;;;2.95;0.77;;;22.80;57.50;;;;;;5012894;28;20041;-75
2022/06/15 10:31:33;;;;;;;5.20;0.73;;;22.90;57.00;;;;;;5013048;28;20104;-76
2022/06/15 10:34:29;;;;;;;2.53;0.63;;;23.10;56.50;;;;;;5013090;28;20030;-75
2022/06/15 10:37:00;;;;;;;4.78;0.93;;;23.30;55.40;;;;;;5012561;28;20026;-76
2022/06/15 10:39:30;;;;;;;3.70;0.90;;;23.50;55.00;;;;;;5012428;28;20037;-77
2022/06/15 10:42:07;;;;;;;4.55;1.10;;;23.70;54.40;;;;;;5012144;28;20123;-76
2022/06/15 10:44:40;;;;;;;3.10;0.80;;;23.90;53.90;;;;;;5012141;28;20026;-77
2022/06/15 10:47:18;;;;;;;4.28;0.90;;;24.30;53.50;;;;;;5014376;28;20026;-77
2022/06/15 10:49:53;;;;;;;5.63;0.90;;;24.60;52.80;;;;;;5015587;28;20033;-74
2022/06/15 10:52:26;;;;;;;3.03;0.65;;;25.00;52.80;;;;;;5015766;28;20018;-75
2022/06/15 11:04:26;;;;;;;2.40;0.75;;;27.00;51.00;;;;;;5016936;28;20037;-75
2022/06/15 11:07:03;;;;;;;3.33;0.70;;;27.70;50.10;;;;;;5016824;28;20109;-78
2022/06/15 11:09:33;;;;;;;2.22;0.60;;;28.10;49.50;;;;;;5015156;28;20378;-79
2022/06/15 11:12:04;;;;;;;2.97;0.68;;;28.80;48.90;;;;;;5015251;28;20018;-79
2022/06/15 11:14:47;;;;;;;4.78;0.70;;;29.50;48.30;;;;;;4995989;28;20113;-79
2022/06/15 11:20:29;;;;;;;2.25;0.70;;;30.70;46.10;;;;;;4996881;28;20037;-77
2022/06/15 11:23:06;;;;;;;3.00;0.50;;;31.10;46.40;;;;;;4995452;28;20526;-78
2022/06/15 11:29:28;;;;;;;2.25;0.60;;;31.20;44.50;;;;;;4985115;28;20064;-78
2022/06/15 11:31:58;;;;;;;2.58;0.50;;;31.10;44.70;;;;;;5010218;28;20026;-78
2022/06/15 11:34:31;;;;;;;2.40;0.50;;;31.10;44.40;;;;;;5016027;28;20493;-78
2022/06/15 11:37:10;;;;;;;2.00;0.60;;;31.00;43.80;;;;;;5015121;28;20022;-77
2022/06/15 11:40:04;;;;;;;2.88;0.50;;;31.00;43.40;;;;;;5016311;28;20399;-77
2022/06/15 11:42:30;;;;;;;1.92;0.50;;;30.90;42.70;;;;;;5014940;28;20161;-77
2022/06/15 11:44:56;;;;;;;3.70;0.52;;;31.00;43.00;;;;;;5014856;28;20533;-79
2022/06/15 11:47:45;;;;;;;3.05;0.52;;;31.00;42.70;;;;;;4989923;28;20042;-77
2022/06/15 11:50:38;;;;;;;2.90;0.50;;;31.00;42.00;;;;;;4995007;28;20033;-79
2022/06/15 11:53:21;;;;;;;2.40;0.60;;;31.00;42.00;;;;;;4996017;28;20034;-79
2022/06/15 11:56:03;;;;;;;2.30;0.50;;;31.00;42.10;;;;;;4994803;28;20072;-78
2022/06/15 11:58:57;;;;;;;5.13;0.50;;;31.10;41.80;;;;;;4997371;28;20295;-79
2022/06/15 12:01:31;;;;;;;2.53;0.50;;;31.20;41.50;;;;;;5015559;28;20033;-78
2022/06/15 12:04:06;;;;;;;2.22;0.60;;;31.30;41.80;;;;;;5015574;28;20026;-78
2022/06/15 12:07:07;;;;;;;2.67;0.47;;;31.40;41.60;;;;;;5000504;28;20364;-77
2022/06/15 12:09:59;;;;;;;4.57;0.70;;;31.50;41.30;;;;;;4989665;28;20046;-78
2022/06/15 12:12:39;;;;;;;2.30;0.50;;;31.60;40.90;;;;;;4994936;28;20025;-77
2022/06/15 12:15:28;;;;;;;1.83;0.50;;;31.60;41.00;;;;;;4994736;28;20467;-77
2022/06/15 12:18:06;;;;;;;4.05;0.65;;;31.70;40.50;;;;;;4994416;28;20034;-77
2022/06/15 12:21:09;;;;;;;4.85;0.60;;;31.90;40.70;;;;;;4995052;28;20403;-78
2022/06/15 12:23:44;;;;;;;2.15;0.47;;;32.00;40.00;;;;;;4995546;28;20101;-77
2022/06/15 12:26:16;;;;;;;2.33;0.47;;;32.20;40.00;;;;;;4994224;28;20466;-79
2022/06/15 12:29:14;;;;;;;5.03;1.27;;;32.40;40.00;;;;;;5001030;28;20040;-78
2022/06/15 12:31:46;;;;;;;2.75;0.82;;;32.50;39.40;;;;;;5002153;28;20065;-78
2022/06/15 12:34:18;;;;;;;3.65;0.60;;;32.70;39.60;;;;;;4994256;28;20470;-79
2022/06/15 12:36:57;;;;;;;3.70;0.75;;;32.70;39.30;;;;;;5006438;28;20530;-78
2022/06/15 12:39:42;;;;;;;3.38;0.57;;;32.90;38.90;;;;;;5011986;28;20034;-80
2022/06/15 12:42:14;;;;;;;2.92;0.50;;;33.00;38.70;;;;;;5015223;28;20025;-79
2022/06/15 12:44:51;;;;;;;1.20;0.50;;;33.10;38.90;;;;;;5014624;28;20018;-78
2022/06/15 12:47:19;;;;;;;1.98;0.40;;;33.30;38.50;;;;;;5009153;28;20509;-79
2022/06/15 12:49:56;;;;;;;3.03;0.77;;;33.40;38.50;;;;;;5009980;28;20033;-79
2022/06/15 12:52:29;;;;;;;2.33;0.60;;;33.50;38.50;;;;;;4995036;28;20097;-79
2022/06/15 12:55:18;;;;;;;4.05;0.55;;;33.70;38.50;;;;;;4995020;28;20033;-79
2022/06/15 12:57:57;;;;;;;3.08;0.65;;;33.80;38.20;;;;;;4994829;28;20030;-83
2022/06/15 13:00:27;;;;;;;3.45;0.57;;;34.00;38.20;;;;;;4994150;28;20053;-80
2022/06/15 13:03:10;;;;;;;2.78;0.63;;;34.10;38.10;;;;;;4993630;28;20057;-80
2022/06/15 13:05:38;;;;;;;;;;;34.30;37.60;;;;;;4993870;28;20077;-80
2022/06/15 13:08:16;;;;;;;3.72;0.50;;;34.40;38.00;;;;;;4993488;28;19949;-77
2022/06/15 13:10:53;;;;;;;1.60;0.40;;;34.40;37.90;;;;;;4992586;28;20109;-79
2022/06/15 13:13:33;;;;;;;1.63;0.40;;;34.50;37.20;;;;;;5006565;28;20030;-80
2022/06/15 13:16:08;;;;;;;3.55;0.60;;;34.70;36.90;;;;;;5012942;28;20026;-80
2022/06/15 13:18:53;;;;;;;1.90;0.50;;;34.90;36.80;;;;;;4993703;28;20037;-81
2022/06/15 13:21:50;;;;;;;1.55;0.40;;;35.00;36.20;;;;;;5003632;28;20034;-82
2022/06/15 13:24:15;;;;;;;4.40;0.68;;;35.10;36.10;;;;;;4985546;28;20148;-81
2022/06/15 13:26:41;;;;;;;6.18;0.65;;;35.20;36.40;;;;;;4994737;28;20478;-79
2022/06/15 13:29:10;;;;;;;2.78;0.60;;;35.40;36.40;;;;;;5008625;28;20485;-80
2022/06/15 13:31:57;;;;;;;2.75;0.88;;;35.50;36.30;;;;;;5001521;28;20027;-80
2022/06/15 13:34:32;;;;;;;4.03;0.50;;;35.60;36.30;;;;;;4993043;28;20022;-80
2022/06/15 13:37:16;;;;;;;6.20;0.60;;;35.80;36.10;;;;;;4993623;28;20117;-80
2022/06/15 13:39:56;;;;;;;3.92;0.82;;;35.90;35.60;;;;;;4994367;28;20030;-81